createdAt,value
2023-02-09T00:00:14.793Z,75.42
2023-02-09T00:01:14.811Z,75.38
2023-02-09T00:02:14.939Z,75.28
2023-02-09T00:03:14.812Z,74.86
2023-02-09T00:04:14.749Z,74.96
2023-02-09T00:05:14.739Z,74.86
2023-02-09T00:06:14.720Z,75.17
2023-02-09T00:07:14.717Z,75.59
2023-02-09T00:08:14.690Z,75.38
2023-02-09T00:09:14.670Z,75.28
2023-02-09T00:10:14.656Z,75.07
2023-02-09T00:11:14.647Z,75.04
2023-02-09T00:12:14.657Z,74.96
2023-02-09T00:13:14.619Z,75.07
2023-02-09T00:14:14.606Z,75.17
2023-02-09T00:15:14.599Z,75.28
2023-02-09T00:16:14.595Z,75.49
2023-02-09T00:17:14.613Z,75.59
2023-02-09T00:18:14.557Z,75.59
2023-02-09T00:19:14.539Z,75.49
2023-02-09T00:20:14.530Z,75.42
2023-02-09T00:21:14.527Z,75.52
2023-02-09T00:22:14.507Z,75.63
2023-02-09T00:23:14.563Z,75.73
2023-02-09T00:24:14.479Z,75.84
2023-02-09T00:25:14.459Z,76.15
2023-02-09T00:26:14.447Z,76.47
2023-02-09T00:27:14.440Z,76.89
2023-02-09T00:28:14.497Z,77.21
2023-02-09T00:29:14.477Z,77.31
2023-02-09T00:30:14.398Z,77.24
2023-02-09T00:31:14.481Z,76.61
2023-02-09T00:32:14.400Z,76.61
2023-02-09T00:33:14.378Z,76.61
2023-02-09T00:34:14.368Z,76.65
2023-02-09T00:35:14.326Z,76.86
2023-02-09T00:36:14.316Z,76.96
2023-02-09T00:37:14.304Z,77.17
2023-02-09T00:38:14.305Z,77.17
2023-02-09T00:39:14.274Z,76.96
2023-02-09T00:40:14.264Z,77.38
2023-02-09T00:41:14.306Z,77.49
2023-02-09T00:42:14.235Z,77.31
2023-02-09T00:43:14.235Z,77.42
2023-02-09T00:44:14.220Z,77.10
2023-02-09T00:45:14.201Z,76.89
2023-02-09T00:46:14.295Z,76.89
2023-02-09T00:47:14.176Z,77.20
2023-02-09T00:48:14.173Z,77.56
2023-02-09T00:49:14.157Z,77.63
2023-02-09T00:50:14.141Z,77.03
2023-02-09T00:51:14.103Z,77.03
2023-02-09T00:52:14.123Z,77.34
2023-02-09T00:53:14.093Z,77.66
2023-02-09T00:54:14.119Z,77.45
2023-02-09T00:55:14.073Z,77.56
2023-02-09T00:56:14.056Z,77.98
2023-02-09T00:57:14.040Z,78.50
2023-02-09T00:58:14.074Z,78.61
2023-02-09T00:59:14.032Z,78.50
2023-02-09T01:00:14.024Z,78.61
2023-02-09T01:01:14.037Z,78.50
2023-02-09T01:02:13.990Z,78.16
2023-02-09T01:03:13.961Z,77.73
2023-02-09T01:04:14.003Z,77.73
2023-02-09T01:05:13.963Z,78.05
2023-02-09T01:06:13.930Z,78.26
2023-02-09T01:07:13.910Z,78.47
2023-02-09T01:08:13.904Z,78.47
2023-02-09T01:09:13.908Z,78.58
2023-02-09T01:10:13.879Z,78.47
2023-02-09T01:11:13.867Z,78.47
2023-02-09T01:12:13.856Z,78.36
2023-02-09T01:13:13.826Z,78.30
2023-02-09T01:14:13.846Z,77.98
2023-02-09T01:15:13.815Z,77.24
2023-02-09T01:16:13.805Z,77.48
2023-02-09T01:17:13.775Z,78.22
2023-02-09T01:18:13.781Z,78.75
2023-02-09T01:19:13.768Z,78.92
2023-02-09T01:20:13.748Z,78.82
2023-02-09T01:21:13.736Z,78.50
2023-02-09T01:22:13.723Z,78.30
2023-02-09T01:23:13.695Z,78.22
2023-02-09T01:24:13.750Z,78.33
2023-02-09T01:25:13.703Z,78.44
2023-02-09T01:26:13.680Z,78.12
2023-02-09T01:27:13.675Z,78.02
2023-02-09T01:28:13.659Z,78.16
2023-02-09T01:29:13.635Z,78.64
2023-02-09T01:30:13.619Z,78.86
2023-02-09T01:31:13.668Z,78.96
2023-02-09T01:32:13.630Z,78.96
2023-02-09T01:33:13.571Z,78.64
2023-02-09T01:34:13.583Z,78.12
2023-02-09T01:35:13.543Z,78.22
2023-02-09T01:36:13.544Z,78.26
2023-02-09T01:37:13.522Z,78.36
2023-02-09T01:38:13.583Z,78.16
2023-02-09T01:39:13.516Z,77.84
2023-02-09T01:40:13.485Z,77.63
2023-02-09T01:41:13.472Z,77.20
2023-02-09T01:42:13.492Z,77.34
2023-02-09T01:43:13.443Z,77.66
2023-02-09T01:44:13.445Z,77.77
2023-02-09T01:45:13.405Z,78.30
2023-02-09T01:46:13.452Z,78.93
2023-02-09T01:47:13.395Z,79.14
2023-02-09T01:48:13.384Z,79.42
2023-02-09T01:49:13.385Z,79.63
2023-02-09T01:50:13.355Z,79.74
2023-02-09T01:51:13.345Z,79.80
2023-02-09T01:52:13.338Z,79.60
2023-02-09T01:53:13.314Z,78.64
2023-02-09T01:54:13.328Z,78.44
2023-02-09T01:55:13.288Z,78.54
2023-02-09T01:56:13.297Z,78.22
2023-02-09T01:57:13.268Z,77.94
2023-02-09T01:58:13.266Z,77.94
2023-02-09T01:59:13.248Z,78.16
2023-02-09T02:00:13.253Z,78.36
2023-02-09T02:01:13.267Z,78.58
2023-02-09T02:02:13.278Z,78.89
2023-02-09T02:03:13.184Z,79.21
2023-02-09T02:04:13.176Z,79.42
2023-02-09T02:05:13.174Z,79.28
2023-02-09T02:06:13.165Z,79.17
2023-02-09T02:07:13.135Z,79.07
2023-02-09T02:08:13.128Z,79.17
2023-02-09T02:09:13.116Z,79.28
2023-02-09T02:10:13.123Z,79.28
2023-02-09T02:11:13.086Z,79.17
2023-02-09T02:12:13.074Z,79.17
2023-02-09T02:13:13.052Z,79.07
2023-02-09T02:14:13.041Z,79.00
2023-02-09T02:15:13.052Z,78.68
2023-02-09T02:16:13.085Z,78.47
2023-02-09T02:17:13.000Z,78.58
2023-02-09T02:18:13.002Z,78.79
2023-02-09T02:19:12.979Z,78.82
2023-02-09T02:20:12.985Z,78.40
2023-02-09T02:21:12.948Z,78.19
2023-02-09T02:22:12.944Z,77.98
2023-02-09T02:23:12.928Z,78.12
2023-02-09T02:24:12.917Z,78.54
2023-02-09T02:25:12.908Z,78.86
2023-02-09T02:26:12.885Z,78.65
2023-02-09T02:27:12.868Z,78.75
2023-02-09T02:28:12.894Z,79.17
2023-02-09T02:29:12.842Z,79.71
2023-02-09T02:30:12.847Z,79.88
2023-02-09T02:31:13.009Z,79.91
2023-02-09T02:32:12.826Z,79.91
2023-02-09T02:33:12.792Z,80.02
2023-02-09T02:34:12.781Z,80.13
2023-02-09T02:35:12.785Z,79.81
2023-02-09T02:36:12.764Z,79.71
2023-02-09T02:37:12.737Z,79.49
2023-02-09T02:38:12.734Z,79.28
2023-02-09T02:39:12.715Z,79.17
2023-02-09T02:40:12.702Z,79.28
2023-02-09T02:41:12.755Z,79.49
2023-02-09T02:42:12.693Z,79.60
2023-02-09T02:43:12.675Z,79.60
2023-02-09T02:44:12.655Z,79.81
2023-02-09T02:45:12.634Z,80.23
2023-02-09T02:46:12.684Z,80.30
2023-02-09T02:47:12.604Z,80.19
2023-02-09T02:48:12.637Z,79.88
2023-02-09T02:49:15.084Z,79.77
2023-02-09T02:50:12.587Z,79.60
2023-02-09T02:51:12.587Z,78.97
2023-02-09T02:52:12.556Z,78.54
2023-02-09T02:53:12.539Z,78.86
2023-02-09T02:54:12.542Z,79.39
2023-02-09T02:55:12.543Z,79.71
2023-02-09T02:56:12.537Z,79.71
2023-02-09T02:57:12.510Z,79.60
2023-02-09T02:58:12.509Z,79.71
2023-02-09T02:59:12.480Z,79.60
2023-02-09T03:00:12.499Z,79.39
2023-02-09T03:01:12.505Z,79.39
2023-02-09T03:02:12.444Z,79.74
2023-02-09T03:03:12.440Z,79.85
2023-02-09T03:04:12.428Z,79.95
2023-02-09T03:05:12.458Z,80.05
2023-02-09T03:06:12.411Z,80.02
2023-02-09T03:07:12.393Z,79.81
2023-02-09T03:08:12.352Z,79.17
2023-02-09T03:09:12.361Z,79.00
2023-02-09T03:10:12.333Z,79.43
2023-02-09T03:11:12.351Z,79.74
2023-02-09T03:12:12.310Z,79.95
2023-02-09T03:13:12.301Z,80.05
2023-02-09T03:14:12.282Z,80.27
2023-02-09T03:15:12.280Z,79.85
2023-02-09T03:16:12.351Z,79.11
2023-02-09T03:17:12.263Z,78.79
2023-02-09T03:18:12.234Z,78.89
2023-02-09T03:19:12.220Z,78.89
2023-02-09T03:20:12.220Z,78.79
2023-02-09T03:21:12.218Z,78.89
2023-02-09T03:22:12.190Z,79.11
2023-02-09T03:23:12.178Z,79.43
2023-02-09T03:24:12.158Z,79.63
2023-02-09T03:25:12.159Z,79.85
2023-02-09T03:26:12.159Z,79.53
2023-02-09T03:27:12.135Z,79.32
2023-02-09T03:28:12.134Z,79.32
2023-02-09T03:29:12.101Z,79.43
2023-02-09T03:30:12.097Z,79.57
2023-02-09T03:31:12.359Z,79.57
2023-02-09T03:32:12.067Z,78.72
2023-02-09T03:33:12.077Z,78.61
2023-02-09T03:34:12.056Z,79.14
2023-02-09T03:35:12.026Z,79.77
2023-02-09T03:36:11.998Z,80.20
2023-02-09T03:37:12.031Z,79.99
2023-02-09T03:38:11.985Z,79.88
2023-02-09T03:39:11.983Z,80.09
2023-02-09T03:40:11.966Z,79.92
2023-02-09T03:41:11.950Z,79.92
2023-02-09T03:42:11.963Z,80.30
2023-02-09T03:43:11.929Z,80.62
2023-02-09T03:44:11.905Z,80.94
2023-02-09T03:45:11.896Z,80.83
2023-02-09T03:46:11.905Z,80.41
2023-02-09T03:47:11.889Z,80.20
2023-02-09T03:48:11.855Z,80.30
2023-02-09T03:49:11.858Z,80.52
2023-02-09T03:50:11.870Z,80.62
2023-02-09T03:51:11.853Z,80.52
2023-02-09T03:52:11.960Z,80.09
2023-02-09T03:53:11.804Z,79.99
2023-02-09T03:54:11.787Z,80.09
2023-02-09T03:55:11.764Z,80.20
2023-02-09T03:56:11.773Z,80.20
2023-02-09T03:57:11.777Z,79.99
2023-02-09T03:58:11.733Z,80.16
2023-02-09T03:59:11.721Z,80.27
2023-02-09T04:00:11.701Z,80.27
2023-02-09T04:01:11.748Z,80.16
2023-02-09T04:02:11.708Z,79.85
2023-02-09T04:03:11.680Z,79.53
2023-02-09T04:04:11.651Z,79.21
2023-02-09T04:05:11.644Z,79.03
2023-02-09T04:06:11.634Z,78.83
2023-02-09T04:07:11.631Z,78.19
2023-02-09T04:08:11.598Z,78.44
2023-02-09T04:09:11.592Z,79.07
2023-02-09T04:10:11.597Z,79.81
2023-02-09T04:11:11.570Z,80.24
2023-02-09T04:12:11.558Z,80.41
2023-02-09T04:13:11.558Z,80.52
2023-02-09T04:14:11.547Z,80.24
2023-02-09T04:15:11.528Z,80.02
2023-02-09T04:16:11.548Z,79.88
2023-02-09T04:17:11.496Z,79.92
2023-02-09T04:18:11.497Z,79.81
2023-02-09T04:19:11.495Z,80.02
2023-02-09T04:20:11.447Z,79.92
2023-02-09T04:21:11.446Z,80.24
2023-02-09T04:22:11.428Z,80.55
2023-02-09T04:23:11.427Z,80.34
2023-02-09T04:24:11.406Z,79.81
2023-02-09T04:25:11.405Z,79.81
2023-02-09T04:26:11.393Z,79.85
2023-02-09T04:27:11.377Z,79.53
2023-02-09T04:28:11.438Z,79.43
2023-02-09T04:29:11.343Z,79.32
2023-02-09T04:30:11.321Z,79.32
2023-02-09T04:31:11.466Z,79.85
2023-02-09T04:32:11.354Z,80.48
2023-02-09T04:33:11.343Z,81.01
2023-02-09T04:34:11.273Z,81.29
2023-02-09T04:35:11.279Z,80.98
2023-02-09T04:36:11.247Z,80.48
2023-02-09T04:37:11.247Z,80.38
2023-02-09T04:38:11.238Z,80.59
2023-02-09T04:39:11.236Z,80.80
2023-02-09T04:40:11.203Z,80.27
2023-02-09T04:41:11.311Z,79.64
2023-02-09T04:42:11.188Z,79.74
2023-02-09T04:43:11.171Z,80.06
2023-02-09T04:44:11.167Z,80.59
2023-02-09T04:45:11.168Z,80.38
2023-02-09T04:46:11.167Z,79.85
2023-02-09T04:47:11.129Z,79.85
2023-02-09T04:48:11.125Z,80.27
2023-02-09T04:50:20.962Z,80.91
2023-02-09T04:51:20.957Z,80.69
2023-02-09T04:52:20.920Z,80.69
2023-02-09T04:53:20.938Z,80.59
2023-02-09T04:54:20.920Z,80.27
2023-02-09T04:55:20.890Z,79.53
2023-02-09T04:56:20.890Z,79.53
2023-02-09T04:57:20.870Z,79.88
2023-02-09T04:58:20.849Z,79.88
2023-02-09T04:59:20.866Z,79.78
2023-02-09T05:00:20.827Z,79.67
2023-02-09T05:01:20.855Z,79.14
2023-02-09T05:02:20.799Z,79.25
2023-02-09T05:03:22.527Z,79.60
2023-02-09T05:04:20.791Z,79.60
2023-02-09T05:05:20.761Z,79.71
2023-02-09T05:06:20.764Z,79.82
2023-02-09T05:07:20.748Z,80.13
2023-02-09T05:08:20.757Z,80.45
2023-02-09T05:09:20.745Z,80.34
2023-02-09T05:10:20.700Z,80.66
2023-02-09T05:11:20.705Z,81.19
2023-02-09T05:12:20.679Z,81.62
2023-02-09T05:13:20.670Z,81.79
2023-02-09T05:14:20.686Z,81.90
2023-02-09T05:15:20.648Z,81.79
2023-02-09T05:16:20.738Z,81.47
2023-02-09T05:17:20.621Z,81.15
2023-02-09T05:18:20.608Z,81.15
2023-02-09T05:19:20.608Z,81.15
2023-02-09T05:20:20.579Z,81.26
2023-02-09T05:21:20.570Z,81.15
2023-02-09T05:22:20.563Z,80.94
2023-02-09T05:23:20.554Z,80.73
2023-02-09T05:24:20.691Z,80.10
2023-02-09T05:25:20.518Z,79.82
2023-02-09T05:26:21.000Z,79.82
2023-02-09T05:27:20.517Z,79.92
2023-02-09T05:28:20.533Z,80.45
2023-02-09T05:29:22.228Z,80.87
2023-02-09T05:30:20.445Z,81.19
2023-02-09T05:31:20.664Z,81.40
2023-02-09T05:32:20.516Z,81.47
2023-02-09T05:33:20.418Z,81.15
2023-02-09T05:34:20.426Z,80.34
2023-02-09T05:35:20.408Z,79.82
2023-02-09T05:36:20.386Z,79.50
2023-02-09T05:37:20.386Z,79.60
2023-02-09T05:38:20.391Z,79.50
2023-02-09T05:39:20.358Z,80.02
2023-02-09T05:40:20.338Z,80.59
2023-02-09T05:41:20.359Z,80.91
2023-02-09T05:42:20.310Z,81.34
2023-02-09T05:43:20.299Z,81.54
2023-02-09T05:44:20.315Z,81.65
2023-02-09T05:45:20.276Z,81.76
2023-02-09T05:46:20.342Z,81.82
2023-02-09T05:47:20.261Z,81.82
2023-02-09T05:48:20.230Z,81.93
2023-02-09T05:49:20.250Z,82.04
2023-02-09T05:50:20.214Z,82.14
2023-02-09T05:51:20.244Z,82.04
2023-02-09T05:52:20.193Z,81.93
2023-02-09T05:53:20.179Z,81.82
2023-02-09T05:54:20.193Z,81.40
2023-02-09T05:55:20.144Z,81.12
2023-02-09T05:56:20.135Z,81.23
2023-02-09T05:57:20.119Z,81.54
2023-02-09T05:58:20.108Z,81.76
2023-02-09T05:59:20.110Z,81.86
2023-02-09T06:00:20.078Z,81.82
2023-02-09T06:01:20.079Z,81.93
2023-02-09T06:02:20.131Z,82.04
2023-02-09T06:03:20.160Z,82.04
2023-02-09T06:04:20.056Z,81.82
2023-02-09T06:05:20.027Z,81.58
2023-02-09T06:06:20.010Z,81.26
2023-02-09T06:07:20.004Z,80.73
2023-02-09T06:08:19.988Z,80.45
2023-02-09T06:09:19.998Z,80.02
2023-02-09T06:10:19.965Z,80.13
2023-02-09T06:11:19.946Z,80.24
2023-02-09T06:12:19.981Z,80.27
2023-02-09T06:13:19.927Z,80.59
2023-02-09T06:14:19.907Z,81.12
2023-02-09T06:15:19.934Z,81.12
2023-02-09T06:16:19.883Z,80.80
2023-02-09T06:17:19.892Z,80.38
2023-02-09T06:18:19.863Z,80.41
2023-02-09T06:19:20.605Z,80.84
2023-02-09T06:20:19.889Z,81.37
2023-02-09T06:21:19.838Z,81.69
2023-02-09T06:22:19.796Z,81.79
2023-02-09T06:23:19.822Z,81.97
2023-02-09T06:24:19.783Z,81.76
2023-02-09T06:25:19.785Z,81.01
2023-02-09T06:26:19.767Z,80.59
2023-02-09T06:27:19.744Z,80.38
2023-02-09T06:28:19.810Z,80.17
2023-02-09T06:29:19.749Z,80.10
2023-02-09T06:30:19.736Z,80.10
2023-02-09T06:31:19.834Z,80.21
2023-02-09T06:32:19.728Z,80.52
2023-02-09T06:33:19.678Z,80.73
2023-02-09T06:34:19.666Z,81.01
2023-02-09T06:35:19.673Z,81.54
2023-02-09T06:36:19.639Z,81.86
2023-02-09T06:37:19.633Z,81.86
2023-02-09T06:38:19.644Z,81.54
2023-02-09T06:39:19.610Z,81.44
2023-02-09T06:40:19.613Z,81.58
2023-02-09T06:41:19.575Z,81.90
2023-02-09T06:42:19.577Z,82.11
2023-02-09T06:43:19.544Z,82.21
2023-02-09T06:44:19.582Z,82.39
2023-02-09T06:45:19.535Z,82.50
2023-02-09T06:46:19.557Z,82.39
2023-02-09T06:47:19.497Z,82.07
2023-02-09T06:48:19.475Z,81.44
2023-02-09T06:49:19.474Z,80.84
2023-02-09T06:50:19.484Z,80.63
2023-02-09T06:51:19.444Z,80.31
2023-02-09T06:52:19.444Z,80.21
2023-02-09T06:53:19.419Z,80.10
2023-02-09T06:54:19.396Z,80.45
2023-02-09T06:55:19.470Z,80.45
2023-02-09T06:56:19.367Z,80.24
2023-02-09T06:57:19.380Z,80.13
2023-02-09T06:58:19.353Z,80.35
2023-02-09T06:59:19.342Z,80.77
2023-02-09T07:00:19.356Z,80.77
2023-02-09T07:01:19.392Z,80.98
2023-02-09T07:02:19.335Z,81.51
2023-02-09T07:03:19.293Z,82.15
2023-02-09T07:04:19.298Z,82.68
2023-02-09T07:05:19.292Z,82.89
2023-02-09T07:06:19.290Z,83.00
2023-02-09T07:07:19.238Z,83.00
2023-02-09T07:08:19.234Z,83.21
2023-02-09T07:09:19.222Z,83.49
2023-02-09T07:10:19.222Z,83.59
2023-02-09T07:11:19.193Z,83.81
2023-02-09T07:12:19.182Z,83.70
2023-02-09T07:13:19.175Z,83.70
2023-02-09T07:14:19.151Z,83.91
2023-02-09T07:15:19.206Z,83.91
2023-02-09T07:16:19.240Z,84.23
2023-02-09T07:17:19.112Z,84.34
2023-02-09T07:18:19.102Z,84.23
2023-02-09T07:19:19.090Z,84.34
2023-02-09T07:20:19.090Z,84.41
2023-02-09T07:21:19.064Z,84.41
2023-02-09T07:22:19.056Z,84.36
2023-02-09T07:23:19.065Z,84.26
2023-02-09T07:24:19.035Z,84.05
2023-02-09T07:25:19.031Z,83.84
2023-02-09T07:26:19.012Z,83.59
2023-02-09T07:27:18.996Z,83.37
2023-02-09T07:28:19.092Z,82.95
2023-02-09T07:29:18.981Z,82.74
2023-02-09T07:30:18.971Z,82.70
2023-02-09T07:31:19.050Z,82.60
2023-02-09T07:32:18.930Z,82.60
2023-02-09T07:33:18.924Z,82.49
2023-02-09T07:34:18.908Z,82.60
2023-02-09T07:35:18.911Z,82.60
2023-02-09T07:36:18.902Z,82.60
2023-02-09T07:37:18.881Z,82.39
2023-02-09T07:38:18.849Z,82.28
2023-02-09T07:39:18.851Z,82.35
2023-02-09T07:40:18.837Z,82.45
2023-02-09T07:41:18.826Z,82.56
2023-02-09T07:42:18.796Z,82.45
2023-02-09T07:43:18.816Z,82.24
2023-02-09T07:44:18.805Z,81.61
2023-02-09T07:45:18.793Z,81.50
2023-02-09T07:46:18.815Z,81.61
2023-02-09T07:47:18.756Z,81.61
2023-02-09T07:48:18.743Z,81.57
2023-02-09T07:49:18.723Z,81.36
2023-02-09T07:50:20.132Z,81.22
2023-02-09T07:51:18.684Z,81.01
2023-02-09T07:52:18.676Z,80.90
2023-02-09T07:53:18.694Z,80.80
2023-02-09T07:54:18.652Z,81.01
2023-02-09T07:55:18.663Z,81.12
2023-02-09T07:56:18.637Z,81.01
2023-02-09T07:57:18.624Z,81.22
2023-02-09T07:58:18.610Z,81.57
2023-02-09T07:59:18.602Z,81.89
2023-02-09T08:00:18.601Z,82.31
2023-02-09T08:01:18.629Z,82.73
2023-02-09T08:02:18.562Z,82.95
2023-02-09T08:03:18.556Z,82.84
2023-02-09T08:04:18.528Z,82.84
2023-02-09T08:05:18.563Z,83.12
2023-02-09T08:06:19.721Z,83.33
2023-02-09T08:07:18.500Z,83.44
2023-02-09T08:08:18.480Z,83.61
2023-02-09T08:09:18.470Z,83.72
2023-02-09T08:10:18.470Z,83.57
2023-02-09T08:11:18.466Z,83.36
2023-02-09T08:12:18.465Z,82.94
2023-02-09T08:13:18.420Z,82.69
2023-02-09T08:14:18.440Z,82.59
2023-02-09T08:15:18.419Z,82.59
2023-02-09T08:16:18.478Z,82.59
2023-02-09T08:17:18.380Z,82.55
2023-02-09T08:18:18.372Z,82.34
2023-02-09T08:19:18.360Z,82.02
2023-02-09T08:20:18.357Z,81.92
2023-02-09T08:21:18.320Z,82.13
2023-02-09T08:22:18.314Z,82.13
2023-02-09T08:23:18.302Z,82.23
2023-02-09T08:24:18.285Z,82.23
2023-02-09T08:25:18.289Z,82.40
2023-02-09T08:26:18.260Z,82.62
2023-02-09T08:27:18.251Z,82.51
2023-02-09T08:28:18.253Z,82.20
2023-02-09T08:29:18.218Z,81.98
2023-02-09T08:30:18.210Z,81.95
2023-02-09T08:31:18.419Z,81.84
2023-02-09T08:32:18.224Z,81.63
2023-02-09T08:33:18.188Z,81.42
2023-02-09T08:34:18.168Z,81.32
2023-02-09T08:35:18.161Z,81.38
2023-02-09T08:36:18.152Z,81.38
2023-02-09T08:37:18.132Z,81.07
2023-02-09T08:38:18.118Z,80.96
2023-02-09T08:39:18.108Z,80.68
2023-02-09T08:40:18.109Z,80.58
2023-02-09T08:41:18.095Z,80.68
2023-02-09T08:42:18.064Z,80.79
2023-02-09T08:43:18.060Z,80.90
2023-02-09T08:44:18.041Z,81.10
2023-02-09T08:45:18.031Z,81.21
2023-02-09T08:46:18.147Z,81.10
2023-02-09T08:47:18.093Z,81.32
2023-02-09T08:48:17.983Z,81.63
2023-02-09T08:49:18.025Z,81.42
2023-02-09T08:50:17.961Z,81.32
2023-02-09T08:51:18.001Z,81.42
2023-02-09T08:52:17.930Z,81.49
2023-02-09T08:53:17.932Z,81.38
2023-02-09T08:54:17.917Z,81.07
2023-02-09T08:55:17.912Z,81.13
2023-02-09T08:56:17.901Z,81.13
2023-02-09T08:57:17.879Z,80.61
2023-02-09T08:58:17.872Z,79.94
2023-02-09T08:59:19.995Z,79.31
2023-02-09T09:00:17.844Z,78.68
2023-02-09T09:01:18.004Z,78.58
2023-02-09T09:02:17.802Z,78.78
2023-02-09T09:03:17.843Z,78.78
2023-02-09T09:04:17.783Z,78.44
2023-02-09T09:05:17.790Z,78.02
2023-02-09T09:06:17.778Z,77.70
2023-02-09T09:07:17.748Z,77.91
2023-02-09T09:08:17.720Z,77.80
2023-02-09T09:09:17.728Z,78.02
2023-02-09T09:10:17.722Z,78.33
2023-02-09T09:11:17.734Z,78.54
2023-02-09T09:12:18.302Z,78.75
2023-02-09T09:13:17.997Z,78.85
2023-02-09T09:14:18.051Z,78.96
2023-02-09T09:15:17.730Z,78.85
2023-02-09T09:16:17.709Z,78.96
2023-02-09T09:17:17.689Z,79.35
2023-02-09T09:18:17.628Z,79.45
2023-02-09T09:19:17.647Z,79.55
2023-02-09T09:20:17.603Z,79.03
2023-02-09T09:21:17.888Z,78.71
2023-02-09T09:22:17.714Z,78.61
2023-02-09T09:23:17.585Z,78.61
2023-02-09T09:24:17.661Z,78.71
2023-02-09T09:25:17.648Z,79.03
2023-02-09T09:26:17.572Z,79.03
2023-02-09T09:27:17.518Z,78.99
2023-02-09T09:28:17.579Z,78.78
2023-02-09T09:29:17.618Z,79.21
2023-02-09T09:30:17.506Z,78.53
2023-02-09T09:31:17.545Z,77.48
2023-02-09T09:32:17.611Z,77.48
2023-02-09T09:33:17.608Z,77.66
2023-02-09T09:34:17.428Z,77.45
2023-02-09T09:35:17.434Z,77.21
2023-02-09T09:36:17.489Z,76.79
2023-02-09T09:37:17.516Z,76.54
2023-02-09T09:38:17.372Z,76.23
2023-02-09T09:39:17.340Z,75.18
2023-02-09T09:40:17.336Z,74.34
2023-02-09T09:41:17.332Z,74.02
2023-02-09T09:42:17.299Z,73.85
2023-02-09T09:43:17.278Z,74.16
2023-02-09T09:44:17.314Z,74.24
2023-02-09T09:45:17.258Z,74.34
2023-02-09T09:46:17.300Z,75.07
2023-02-09T09:47:17.230Z,75.25
2023-02-09T09:48:17.218Z,74.52
2023-02-09T09:49:17.206Z,73.68
2023-02-09T09:50:17.196Z,73.26
2023-02-09T09:51:17.198Z,73.36
2023-02-09T09:52:17.167Z,72.94
2023-02-09T09:53:17.168Z,73.47
2023-02-09T09:54:17.150Z,73.89
2023-02-09T09:55:17.136Z,74.06
2023-02-09T09:56:17.188Z,74.38
2023-02-09T09:57:17.116Z,73.61
2023-02-09T09:58:17.106Z,72.77
2023-02-09T09:59:17.064Z,71.31
2023-02-09T10:00:17.062Z,71.10
2023-02-09T10:01:17.103Z,70.89
2023-02-09T10:02:17.046Z,70.89
2023-02-09T10:03:17.040Z,71.10
2023-02-09T10:04:17.149Z,71.38
2023-02-09T10:05:17.002Z,71.80
2023-02-09T10:06:17.004Z,71.59
2023-02-09T10:07:19.152Z,71.56
2023-02-09T10:08:16.968Z,71.45
2023-02-09T10:09:17.076Z,71.56
2023-02-09T10:10:16.934Z,71.21
2023-02-09T10:11:16.929Z,71.11
2023-02-09T10:12:17.087Z,70.79
2023-02-09T10:13:16.902Z,70.37
2023-02-09T10:14:16.886Z,70.90
2023-02-09T10:15:16.875Z,70.97
2023-02-09T10:16:16.988Z,70.65
2023-02-09T10:17:16.862Z,70.34
2023-02-09T10:18:16.835Z,70.24
2023-02-09T10:19:16.841Z,70.03
2023-02-09T10:20:16.803Z,69.19
2023-02-09T10:21:16.797Z,68.88
2023-02-09T10:22:16.810Z,68.95
2023-02-09T10:23:16.763Z,69.06
2023-02-09T10:24:16.768Z,69.06
2023-02-09T10:25:16.752Z,69.26
2023-02-09T10:26:16.780Z,68.95
2023-02-09T10:27:16.734Z,68.63
2023-02-09T10:28:16.781Z,68.29
2023-02-09T10:29:16.682Z,68.50
2023-02-09T10:30:16.680Z,67.98
2023-02-09T10:31:16.830Z,67.77
2023-02-09T10:32:16.681Z,67.66
2023-02-09T10:33:16.629Z,67.25
2023-02-09T10:34:16.622Z,67.25
2023-02-09T10:35:16.697Z,68.16
2023-02-09T10:36:16.598Z,68.16
2023-02-09T10:37:16.608Z,67.63
2023-02-09T10:38:16.567Z,67.32
2023-02-09T10:39:16.559Z,66.66
2023-02-09T10:40:16.547Z,64.79
2023-02-09T10:41:16.532Z,65.00
2023-02-09T10:42:16.555Z,65.20
2023-02-09T10:43:16.511Z,65.20
2023-02-09T10:44:16.527Z,65.94
2023-02-09T10:45:16.488Z,66.14
2023-02-09T10:46:16.525Z,64.26
2023-02-09T10:47:16.505Z,63.32
2023-02-09T10:48:16.435Z,63.54
2023-02-09T10:49:16.424Z,63.95
2023-02-09T10:50:23.500Z,64.16
2023-02-09T10:51:16.401Z,64.26
2023-02-09T10:52:16.407Z,64.45
2023-02-09T10:53:16.369Z,64.86
2023-02-09T10:54:16.379Z,64.76
2023-02-09T10:55:16.351Z,64.45
2023-02-09T10:56:16.340Z,64.52
2023-02-09T10:57:16.337Z,64.21
2023-02-09T10:58:16.309Z,64.42
2023-02-09T10:59:16.287Z,63.58
2023-02-09T11:00:16.297Z,64.21
2023-02-09T11:01:16.284Z,64.21
2023-02-09T11:02:16.281Z,63.58
2023-02-09T11:03:16.250Z,63.40
2023-02-09T11:04:16.326Z,63.82
2023-02-09T11:05:16.231Z,64.76
2023-02-09T11:06:16.222Z,64.73
2023-02-09T11:07:16.202Z,64.11
2023-02-09T11:08:16.213Z,64.11
2023-02-09T11:09:16.185Z,63.89
2023-02-09T11:10:16.172Z,62.88
2023-02-09T11:11:16.163Z,63.61
2023-02-09T11:12:16.142Z,64.55
2023-02-09T11:13:16.148Z,65.07
2023-02-09T11:14:16.155Z,65.77
2023-02-09T11:15:16.116Z,65.98
2023-02-09T11:16:16.177Z,65.88
2023-02-09T11:17:16.080Z,65.74
2023-02-09T11:18:16.084Z,65.22
2023-02-09T11:19:16.044Z,64.49
2023-02-09T11:20:16.051Z,63.27
2023-02-09T11:21:16.027Z,63.37
2023-02-09T11:22:16.032Z,63.27
2023-02-09T11:23:16.013Z,63.06
2023-02-09T11:24:15.998Z,63.27
2023-02-09T11:25:15.987Z,64.94
2023-02-09T11:26:15.976Z,65.53
2023-02-09T11:27:15.956Z,65.11
2023-02-09T11:28:16.022Z,64.98
2023-02-09T11:29:15.923Z,64.25
2023-02-09T11:30:15.923Z,63.10
2023-02-09T11:31:15.933Z,62.79
2023-02-09T11:32:15.884Z,62.87
2023-02-09T11:33:15.886Z,62.14
2023-02-09T11:34:15.873Z,62.24
2023-02-09T11:35:15.843Z,62.24
2023-02-09T11:36:15.833Z,62.11
2023-02-09T11:37:15.826Z,61.18
2023-02-09T11:38:15.851Z,61.59
2023-02-09T11:39:15.793Z,61.59
2023-02-09T11:40:15.910Z,61.49
2023-02-09T11:41:15.763Z,61.28
2023-02-09T11:42:15.756Z,61.38
2023-02-09T11:43:15.895Z,61.80
2023-02-09T11:44:15.734Z,62.63
2023-02-09T11:45:15.702Z,62.95
2023-02-09T11:46:15.785Z,63.12
2023-02-09T11:47:15.695Z,62.92
2023-02-09T11:48:15.703Z,62.81
2023-02-09T11:49:15.676Z,62.92
2023-02-09T11:50:15.742Z,63.09
2023-02-09T11:51:15.641Z,62.78
2023-02-09T11:52:15.633Z,62.37
2023-02-09T11:53:15.633Z,62.26
2023-02-09T11:54:15.612Z,62.47
2023-02-09T11:55:15.582Z,62.34
2023-02-09T11:56:15.574Z,61.09
2023-02-09T11:57:15.565Z,61.43
2023-02-09T11:58:15.565Z,62.05
2023-02-09T11:59:15.540Z,62.55
2023-02-09T12:00:15.552Z,62.24
2023-02-09T12:01:16.679Z,61.92
2023-02-09T12:02:15.504Z,61.82
2023-02-09T12:03:15.616Z,61.92
2023-02-09T12:04:15.471Z,61.71
2023-02-09T12:05:15.453Z,62.00
2023-02-09T12:06:15.455Z,62.00
2023-02-09T12:07:15.431Z,61.17
2023-02-09T12:08:15.432Z,60.75
2023-02-09T12:09:15.400Z,60.75
2023-02-09T12:10:15.579Z,60.75
2023-02-09T12:11:15.373Z,60.52
2023-02-09T12:12:15.378Z,60.52
2023-02-09T12:13:15.397Z,60.62
2023-02-09T12:14:15.372Z,60.83
2023-02-09T12:15:15.335Z,60.72
2023-02-09T12:16:15.370Z,60.72
2023-02-09T12:17:15.290Z,61.04
2023-02-09T12:18:15.279Z,60.93
2023-02-09T12:19:15.290Z,60.83
2023-02-09T12:20:15.272Z,60.62
2023-02-09T12:21:15.244Z,60.83
2023-02-09T12:22:15.235Z,60.62
2023-02-09T12:23:15.224Z,60.93
2023-02-09T12:24:15.220Z,60.83
2023-02-09T12:25:15.192Z,60.62
2023-02-09T12:26:15.191Z,60.52
2023-02-09T12:27:15.162Z,60.49
2023-02-09T12:28:15.224Z,58.96
2023-02-09T12:29:15.163Z,59.17
2023-02-09T12:30:15.145Z,59.25
2023-02-09T12:31:15.217Z,58.54
2023-02-09T12:32:15.171Z,59.27
2023-02-09T12:33:15.106Z,59.58
2023-02-09T12:34:15.107Z,59.69
2023-02-09T12:35:15.057Z,59.89
2023-02-09T12:36:15.057Z,59.79
2023-02-09T12:37:15.039Z,59.69
2023-02-09T12:38:15.029Z,59.48
2023-02-09T12:39:15.021Z,59.27
2023-02-09T12:40:15.029Z,59.35
2023-02-09T12:41:14.988Z,59.56
2023-02-09T12:42:14.977Z,59.77
2023-02-09T12:43:14.935Z,60.08
2023-02-09T12:44:14.983Z,59.97
2023-02-09T12:45:14.939Z,59.42
2023-02-09T12:46:14.936Z,59.32
2023-02-09T12:47:14.897Z,59.22
2023-02-09T12:48:14.885Z,59.22
2023-02-09T12:49:14.883Z,58.91
2023-02-09T12:50:14.862Z,58.49
2023-02-09T12:51:14.843Z,58.70
2023-02-09T12:52:14.852Z,58.80
2023-02-09T12:53:14.962Z,59.45